createdAt,value
2018-07-27T00:01:48.383Z,78.80
2018-07-27T00:04:17.116Z,78.80
2018-07-27T00:06:44.845Z,78.70
2018-07-27T00:09:13.721Z,78.70
2018-07-27T00:11:43.032Z,78.80
2018-07-27T00:14:11.753Z,78.80
2018-07-27T00:16:39.425Z,78.80
2018-07-27T00:19:07.111Z,78.70
2018-07-27T00:21:35.152Z,78.70
2018-07-27T00:24:02.827Z,78.70
2018-07-27T00:26:30.649Z,78.80
2018-07-27T00:28:58.337Z,78.80
2018-07-27T00:31:26.923Z,78.70
2018-07-27T00:33:54.635Z,78.80
2018-07-27T00:36:23.864Z,78.80
2018-07-27T00:38:51.527Z,78.70
2018-07-27T00:41:19.260Z,78.80
2018-07-27T00:43:47.895Z,78.80
2018-07-27T00:46:17.088Z,78.70
2018-07-27T00:48:44.756Z,78.80
2018-07-27T00:51:12.520Z,78.80
2018-07-27T00:53:40.205Z,78.80
2018-07-27T00:56:07.941Z,78.80
2018-07-27T00:58:36.053Z,79.20
2018-07-27T01:01:03.829Z,78.80
2018-07-27T01:03:31.541Z,78.80
2018-07-27T01:05:59.207Z,78.80
2018-07-27T01:08:27.935Z,78.80
2018-07-27T01:10:55.616Z,78.80
2018-07-27T01:13:23.294Z,78.70
2018-07-27T01:15:50.984Z,78.80
2018-07-27T01:18:20.100Z,78.80
2018-07-27T01:23:17.103Z,78.80
2018-07-27T01:25:44.786Z,78.80
2018-07-27T01:28:12.479Z,78.80
2018-07-27T01:30:40.166Z,78.80
2018-07-27T01:33:07.839Z,78.80
2018-07-27T01:35:36.492Z,78.80
2018-07-27T01:38:04.196Z,78.80
2018-07-27T01:40:31.904Z,78.80
2018-07-27T01:42:59.595Z,78.80
2018-07-27T01:45:27.288Z,78.80
2018-07-27T01:47:54.971Z,78.80
2018-07-27T01:50:23.470Z,78.80
2018-07-27T01:52:51.381Z,78.90
2018-07-27T01:55:20.780Z,78.80
2018-07-27T01:57:49.495Z,78.80
2018-07-27T02:00:19.191Z,78.80
2018-07-27T02:02:49.289Z,78.90
2018-07-27T02:05:18.027Z,78.90
2018-07-27T02:07:46.257Z,78.80
2018-07-27T02:10:13.957Z,78.90
2018-07-27T02:12:41.673Z,78.90
2018-07-27T02:15:09.857Z,78.90
2018-07-27T02:17:37.873Z,78.90
2018-07-27T02:20:05.678Z,78.90
2018-07-27T02:22:33.560Z,78.90
2018-07-27T02:27:28.668Z,79.00
2018-07-27T02:29:56.340Z,78.90
2018-07-27T02:32:24.022Z,78.90
2018-07-27T02:34:51.708Z,78.90
2018-07-27T02:37:19.384Z,78.90
2018-07-27T02:39:47.128Z,79.00
2018-07-27T02:42:14.803Z,78.90
2018-07-27T02:44:42.487Z,78.90
2018-07-27T02:47:10.173Z,79.00
2018-07-27T02:49:38.750Z,79.00
2018-07-27T02:52:06.440Z,79.00
2018-07-27T02:54:34.126Z,79.00
2018-07-27T02:57:01.911Z,78.90
2018-07-27T02:59:29.591Z,78.90
2018-07-27T03:01:57.292Z,78.90
2018-07-27T03:04:25.860Z,78.90
2018-07-27T03:06:53.563Z,79.00
2018-07-27T03:09:21.244Z,79.00
2018-07-27T03:14:17.145Z,79.10
2018-07-27T03:16:44.820Z,79.00
2018-07-27T03:19:13.382Z,79.00
2018-07-27T03:21:41.085Z,79.00
2018-07-27T03:24:08.780Z,79.00
2018-07-27T03:26:36.481Z,79.00
2018-07-27T03:29:04.155Z,79.00
2018-07-27T03:31:32.721Z,79.00
2018-07-27T03:34:00.431Z,79.00
2018-07-27T03:36:29.140Z,79.00
2018-07-27T03:38:57.846Z,79.10
2018-07-27T03:41:25.536Z,79.10
2018-07-27T03:43:53.248Z,79.00
2018-07-27T03:46:21.370Z,79.00
2018-07-27T03:48:49.268Z,79.10
2018-07-27T03:51:18.085Z,79.10
2018-07-27T03:53:47.229Z,79.10
2018-07-27T03:56:16.322Z,79.00
2018-07-27T03:58:44.885Z,78.90
2018-07-27T04:01:12.568Z,78.90
2018-07-27T04:03:40.243Z,79.00
2018-07-27T04:06:08.815Z,78.90
2018-07-27T04:08:37.534Z,78.80
2018-07-27T04:11:06.152Z,78.70
2018-07-27T04:13:34.735Z,78.50
2018-07-27T04:16:03.492Z,78.40
2018-07-27T04:18:31.172Z,78.40
2018-07-27T04:20:59.848Z,78.40
2018-07-27T04:23:28.547Z,78.40
2018-07-27T04:25:57.239Z,78.40
2018-07-27T04:28:25.921Z,78.40
2018-07-27T04:30:54.611Z,78.40
2018-07-27T04:33:23.312Z,78.40
2018-07-27T04:35:51.049Z,78.40
2018-07-27T04:38:19.736Z,78.50
2018-07-27T04:40:49.779Z,78.50
2018-07-27T04:43:19.345Z,78.50
2018-07-27T04:45:48.025Z,78.50
2018-07-27T04:48:18.476Z,78.60
2018-07-27T04:50:47.512Z,78.50
2018-07-27T04:53:17.531Z,78.50
2018-07-27T04:55:45.215Z,78.50
2018-07-27T04:58:12.924Z,78.60
2018-07-27T05:00:40.607Z,78.50
2018-07-27T05:03:08.289Z,79.20
2018-07-27T05:05:35.984Z,78.50
2018-07-27T05:08:04.568Z,78.60
2018-07-27T05:10:37.688Z,78.60
2018-07-27T05:13:05.945Z,78.60
2018-07-27T05:15:33.652Z,78.60
2018-07-27T05:18:01.321Z,78.70
2018-07-27T05:20:29.010Z,78.70
2018-07-27T05:22:57.709Z,78.70
2018-07-27T05:27:53.851Z,78.80
2018-07-27T05:30:21.527Z,78.80
2018-07-27T05:32:51.215Z,78.90
2018-07-27T05:35:19.924Z,78.90
2018-07-27T05:37:49.263Z,78.90
2018-07-27T05:40:18.684Z,78.90
2018-07-27T05:42:48.744Z,79.00
2018-07-27T05:45:17.881Z,79.00
2018-07-27T05:47:45.544Z,79.00
2018-07-27T05:50:14.303Z,79.10
2018-07-27T05:52:42.932Z,79.00
2018-07-27T05:55:11.542Z,78.90
2018-07-27T05:57:39.276Z,79.00
2018-07-27T06:00:08.420Z,79.00
2018-07-27T06:02:36.121Z,79.00
2018-07-27T06:05:05.013Z,79.10
2018-07-27T06:07:33.748Z,79.00
2018-07-27T06:10:01.458Z,79.10
2018-07-27T06:12:30.128Z,79.20
2018-07-27T06:14:58.802Z,79.20
2018-07-27T06:17:27.486Z,79.10
2018-07-27T06:19:55.184Z,79.20
2018-07-27T06:22:23.893Z,79.20
2018-07-27T06:24:53.908Z,79.20
2018-07-27T06:27:21.632Z,79.00
2018-07-27T06:29:50.055Z,79.20
2018-07-27T06:32:19.063Z,79.00
2018-07-27T06:34:47.322Z,79.20
2018-07-27T06:37:15.361Z,79.20
2018-07-27T06:39:44.549Z,79.30
2018-07-27T06:42:12.356Z,79.20
2018-07-27T06:44:40.033Z,79.30
2018-07-27T06:47:07.709Z,79.40
2018-07-27T06:49:35.400Z,79.30
2018-07-27T06:52:03.072Z,79.10
2018-07-27T06:54:31.098Z,79.20
2018-07-27T06:56:58.780Z,79.30
2018-07-27T06:59:26.486Z,79.30
2018-07-27T07:01:54.160Z,79.10
2018-07-27T07:04:22.004Z,79.40
2018-07-27T07:06:49.793Z,79.20
2018-07-27T07:09:19.384Z,79.20
2018-07-27T07:11:48.140Z,79.20
2018-07-27T07:16:48.230Z,79.30
2018-07-27T07:19:16.470Z,79.20
2018-07-27T07:21:44.169Z,79.30
2018-07-27T07:24:11.956Z,79.30
2018-07-27T07:26:39.660Z,79.50
2018-07-27T07:29:07.356Z,79.20
2018-07-27T07:31:35.099Z,79.30
2018-07-27T07:34:02.801Z,79.40
2018-07-27T07:36:30.523Z,79.30
2018-07-27T07:38:58.211Z,79.40
2018-07-27T07:41:26.008Z,79.40
2018-07-27T07:43:54.797Z,79.50
2018-07-27T07:46:24.515Z,79.50
2018-07-27T07:48:53.219Z,79.60
2018-07-27T07:51:20.896Z,79.50
2018-07-27T07:53:49.407Z,79.30
2018-07-27T07:56:18.199Z,79.50
2018-07-27T07:58:49.418Z,79.40
2018-07-27T08:01:18.911Z,79.60
2018-07-27T08:03:47.992Z,79.30
2018-07-27T08:06:15.679Z,79.70
2018-07-27T08:08:43.354Z,79.30
2018-07-27T08:11:11.072Z,79.50
2018-07-27T08:13:38.768Z,79.30
2018-07-27T08:16:06.487Z,79.60
2018-07-27T08:18:35.134Z,80.00
2018-07-27T08:21:02.899Z,79.90
2018-07-27T08:23:30.594Z,79.80
2018-07-27T08:27:04.440Z,79.70
2018-07-27T08:29:35.904Z,79.60
2018-07-27T08:32:03.925Z,79.60
2018-07-27T08:34:31.601Z,79.60
2018-07-27T08:36:59.303Z,79.70
2018-07-27T08:39:28.409Z,79.70
2018-07-27T08:41:56.123Z,79.50
2018-07-27T08:44:28.098Z,79.60
2018-07-27T08:46:56.293Z,79.70
2018-07-27T08:49:23.991Z,79.70
2018-07-27T08:51:52.563Z,79.70
2018-07-27T08:54:21.298Z,79.70
2018-07-27T08:56:49.971Z,79.80
2018-07-27T08:59:20.604Z,79.80
2018-07-27T09:01:49.326Z,79.60
2018-07-27T09:04:19.345Z,79.40
2018-07-27T09:06:48.814Z,79.40
2018-07-27T09:09:18.951Z,79.40
2018-07-27T09:11:48.047Z,79.20
2018-07-27T09:14:15.759Z,79.10
2018-07-27T09:16:44.519Z,79.30
2018-07-27T09:19:12.228Z,79.20
2018-07-27T09:21:42.063Z,79.30
2018-07-27T09:24:10.817Z,79.30
2018-07-27T09:26:38.492Z,79.10
2018-07-27T09:29:06.176Z,79.20
2018-07-27T09:31:33.899Z,79.20
2018-07-27T09:34:01.690Z,79.20
2018-07-27T09:36:29.365Z,79.10
2018-07-27T09:38:58.052Z,79.10
2018-07-27T09:41:25.740Z,79.10
2018-07-27T09:43:53.534Z,79.00
2018-07-27T09:46:21.570Z,79.10
2018-07-27T09:48:54.436Z,79.20
2018-07-27T09:51:36.665Z,79.10
2018-07-27T09:54:07.307Z,79.20
2018-07-27T09:56:39.412Z,79.30
2018-07-27T09:59:09.405Z,79.20
2018-07-27T10:01:50.037Z,79.20
2018-07-27T10:06:58.584Z,79.30
2018-07-27T10:09:38.988Z,79.20
2018-07-27T10:12:12.062Z,78.90
2018-07-27T10:14:42.020Z,78.90
2018-07-27T10:17:09.990Z,78.90
2018-07-27T10:19:39.300Z,79.00
2018-07-27T10:22:08.294Z,79.30
2018-07-27T10:30:21.873Z,79.50
2018-07-27T10:32:51.969Z,80.10
2018-07-27T10:38:06.850Z,79.30
2018-07-27T10:40:37.451Z,79.30
2018-07-27T10:43:06.565Z,79.30
2018-07-27T10:45:36.589Z,79.30
2018-07-27T10:48:06.577Z,79.20
2018-07-27T10:50:45.040Z,79.20
2018-07-27T10:53:13.044Z,79.20
2018-07-27T10:55:41.293Z,79.20
2018-07-27T10:58:09.622Z,79.40
2018-07-27T11:00:38.228Z,79.30
2018-07-27T11:03:06.260Z,79.30
2018-07-27T11:05:34.984Z,79.30
2018-07-27T11:08:02.957Z,79.50
2018-07-27T11:10:30.934Z,79.40
2018-07-27T11:12:59.085Z,79.40
2018-07-27T11:17:56.317Z,79.20
2018-07-27T11:20:25.011Z,79.20
2018-07-27T11:22:52.935Z,79.10
2018-07-27T11:25:20.909Z,79.30
2018-07-27T11:27:50.276Z,79.20
2018-07-27T11:30:19.011Z,79.30
2018-07-27T11:32:48.631Z,79.20
2018-07-27T11:35:18.917Z,79.10
2018-07-27T11:37:50.029Z,79.10
2018-07-27T11:42:53.950Z,79.30
2018-07-27T11:45:22.160Z,79.40
2018-07-27T11:47:50.203Z,79.20
2018-07-27T11:50:20.053Z,79.20
2018-07-27T11:52:48.887Z,79.30
2018-07-27T11:55:19.071Z,79.20
2018-07-27T11:57:48.896Z,79.50
2018-07-27T12:00:22.474Z,79.40
2018-07-27T12:05:35.852Z,79.60
2018-07-27T12:08:20.377Z,79.70
2018-07-27T12:10:52.970Z,79.90
2018-07-27T12:16:08.252Z,79.60
2018-07-27T12:18:38.008Z,79.80
2018-07-27T12:23:35.033Z,79.70
2018-07-27T12:26:02.848Z,79.80
2018-07-27T12:28:31.513Z,79.30
2018-07-27T12:30:59.661Z,79.40
2018-07-27T12:33:27.441Z,79.40
2018-07-27T12:35:55.251Z,79.30
2018-07-27T12:38:24.053Z,79.30
2018-07-27T12:40:51.899Z,79.20
2018-07-27T12:43:19.821Z,79.10
2018-07-27T12:45:49.734Z,79.30
2018-07-27T12:48:23.870Z,79.10
2018-07-27T12:53:26.318Z,79.20
2018-07-27T12:55:55.145Z,79.30
2018-07-27T12:58:22.935Z,79.40
2018-07-27T13:00:52.708Z,79.60
2018-07-27T13:06:00.941Z,79.30
2018-07-27T13:08:29.871Z,79.20
2018-07-27T13:10:58.591Z,79.40
2018-07-27T13:13:26.563Z,79.30
2018-07-27T13:16:07.875Z,79.20
2018-07-27T13:18:37.654Z,79.20
2018-07-27T13:21:05.514Z,79.30
2018-07-27T13:23:34.405Z,79.20
2018-07-27T13:28:36.653Z,79.20
2018-07-27T13:31:04.516Z,79.20
2018-07-27T13:33:33.305Z,79.00
2018-07-27T13:36:03.124Z,79.10
2018-07-27T13:38:31.461Z,79.10
2018-07-27T13:43:52.112Z,79.10
2018-07-27T13:49:11.129Z,79.10
2018-07-27T13:51:40.422Z,79.00
2018-07-27T13:54:08.284Z,79.20
2018-07-27T13:56:37.885Z,79.20
2018-07-27T13:59:07.275Z,79.20
2018-07-27T14:01:35.375Z,79.40
2018-07-27T14:04:03.645Z,79.30
2018-07-27T14:06:31.575Z,79.40
2018-07-27T14:08:59.504Z,79.20
2018-07-27T14:14:13.976Z,79.30
2018-07-27T14:19:12.029Z,79.10
2018-07-27T14:21:40.199Z,79.70
2018-07-27T14:24:08.093Z,79.10
2018-07-27T14:29:17.527Z,79.20
2018-07-27T14:31:46.741Z,79.20
2018-07-27T14:34:14.709Z,79.20
2018-07-27T14:36:42.626Z,79.20
2018-07-27T14:39:19.475Z,79.20
2018-07-27T14:41:49.787Z,79.20
2018-07-27T14:44:20.077Z,79.20
2018-07-27T14:46:49.822Z,79.20
2018-07-27T14:49:19.632Z,79.10
2018-07-27T14:51:49.729Z,79.20
2018-07-27T14:54:20.466Z,79.10
2018-07-27T14:56:50.277Z,79.20
2018-07-27T14:59:20.463Z,79.30
2018-07-27T15:01:59.220Z,79.40
2018-07-27T15:04:28.443Z,79.10
2018-07-27T15:09:46.716Z,79.10
2018-07-27T15:12:15.418Z,79.10
2018-07-27T15:17:13.272Z,79.20
2018-07-27T15:19:42.005Z,79.10
2018-07-27T15:22:10.775Z,79.10
2018-07-27T15:24:50.451Z,79.10
2018-07-27T15:27:28.345Z,79.20
2018-07-27T15:29:57.439Z,79.00
2018-07-27T15:32:44.187Z,79.00
2018-07-27T15:35:21.702Z,79.60
2018-07-27T15:37:51.041Z,79.20
2018-07-27T15:40:19.955Z,79.40
2018-07-27T15:42:49.336Z,79.20
2018-07-27T15:45:18.973Z,79.10
2018-07-27T15:47:49.902Z,79.10
2018-07-27T15:50:19.865Z,79.10
2018-07-27T15:52:50.085Z,78.90
2018-07-27T15:55:29.865Z,79.00
2018-07-27T15:57:59.028Z,79.00
2018-07-27T16:00:32.683Z,79.00
2018-07-27T16:03:01.596Z,79.00
2018-07-27T16:05:30.526Z,79.00
2018-07-27T16:08:20.555Z,78.90
2018-07-27T16:10:49.784Z,79.00
2018-07-27T16:16:16.857Z,79.00
2018-07-27T16:18:50.637Z,78.90
2018-07-27T16:24:15.818Z,79.30
2018-07-27T16:26:43.663Z,79.20
2018-07-27T16:32:09.972Z,79.30
2018-07-27T16:34:40.158Z,79.20
2018-07-27T16:37:10.308Z,79.20
2018-07-27T16:39:42.188Z,79.20
2018-07-27T16:42:12.217Z,79.20
2018-07-27T16:44:42.719Z,79.10
2018-07-27T16:47:10.480Z,79.10
2018-07-27T16:49:38.284Z,79.00
2018-07-27T16:52:06.048Z,79.00
2018-07-27T16:54:33.857Z,79.00
2018-07-27T16:57:01.615Z,78.90
2018-07-27T16:59:31.487Z,78.90
2018-07-27T17:01:59.593Z,78.80
2018-07-27T17:04:29.343Z,78.90
2018-07-27T17:06:57.393Z,78.90
2018-07-27T17:09:25.427Z,78.80
2018-07-27T17:11:53.422Z,78.90
2018-07-27T17:14:21.349Z,78.90
2018-07-27T17:16:50.418Z,78.90
2018-07-27T17:19:19.778Z,78.80
2018-07-27T17:24:16.843Z,78.90
2018-07-27T17:29:13.453Z,78.90
2018-07-27T17:31:42.324Z,78.80
2018-07-27T17:34:11.588Z,78.80
2018-07-27T17:39:08.622Z,78.80
2018-07-27T17:41:36.654Z,78.80
2018-07-27T17:44:04.659Z,78.80
2018-07-27T17:46:32.946Z,78.80
2018-07-27T17:49:01.857Z,78.80
2018-07-27T17:51:29.908Z,78.70
2018-07-27T17:53:58.116Z,78.70
2018-07-27T17:56:31.052Z,78.70
2018-07-27T17:58:59.177Z,78.70
2018-07-27T18:01:27.157Z,78.80
2018-07-27T18:03:55.129Z,78.80
2018-07-27T18:08:52.781Z,80.40
2018-07-27T18:11:20.690Z,80.50
2018-07-27T18:13:49.771Z,80.40
2018-07-27T18:16:19.980Z,80.30
2018-07-27T18:18:50.455Z,79.90
2018-07-27T18:21:19.999Z,79.70
2018-07-27T18:23:55.177Z,79.70
2018-07-27T18:26:24.648Z,79.40
2018-07-27T18:31:49.269Z,79.10
2018-07-27T18:34:18.107Z,79.00
2018-07-27T18:36:49.562Z,79.00
2018-07-27T18:39:18.931Z,79.00
2018-07-27T18:41:49.164Z,79.00
2018-07-27T18:44:23.523Z,78.90
2018-07-27T18:46:53.455Z,78.90
2018-07-27T18:49:21.294Z,79.00
2018-07-27T18:51:50.550Z,79.10
2018-07-27T18:54:21.741Z,79.10
2018-07-27T18:56:49.965Z,79.20
2018-07-27T19:01:52.203Z,79.10
2018-07-27T19:04:20.067Z,79.10
2018-07-27T19:06:49.880Z,79.10
2018-07-27T19:09:20.367Z,79.20
2018-07-27T19:11:50.274Z,79.20
2018-07-27T19:14:19.309Z,79.20
2018-07-27T19:16:49.619Z,79.20
2018-07-27T19:19:19.576Z,79.20
2018-07-27T19:21:49.225Z,79.20
2018-07-27T19:24:19.481Z,79.20
2018-07-27T19:26:54.230Z,79.30
2018-07-27T19:29:22.154Z,79.30
2018-07-27T19:31:51.169Z,79.40
2018-07-27T19:34:20.101Z,79.30
2018-07-27T19:36:49.858Z,79.30
2018-07-27T19:39:19.274Z,79.30
2018-07-27T19:41:50.262Z,79.30
2018-07-27T19:44:21.232Z,79.20
2018-07-27T19:46:50.240Z,79.30
2018-07-27T19:49:19.201Z,79.40
2018-07-27T19:51:48.750Z,79.40
2018-07-27T19:54:17.306Z,79.20
2018-07-27T19:56:49.816Z,79.30
2018-07-27T19:59:18.591Z,79.40
2018-07-27T20:01:47.663Z,79.40
2018-07-27T20:04:18.031Z,79.40
2018-07-27T20:06:45.856Z,79.30
2018-07-27T20:09:13.635Z,79.40
2018-07-27T20:11:42.510Z,79.30
2018-07-27T20:14:10.592Z,79.50
2018-07-27T20:16:45.098Z,79.50
2018-07-27T20:19:13.022Z,79.50
2018-07-27T20:21:41.664Z,79.30
2018-07-27T20:24:10.315Z,79.40
2018-07-27T20:26:39.138Z,79.30
2018-07-27T20:29:07.758Z,79.40
2018-07-27T20:31:35.575Z,79.40
2018-07-27T20:34:03.957Z,79.40
2018-07-27T20:36:31.902Z,79.40
2018-07-27T20:39:00.237Z,79.30
2018-07-27T20:41:29.798Z,79.10
2018-07-27T20:43:57.664Z,79.20
2018-07-27T20:46:26.356Z,79.30
2018-07-27T20:48:54.947Z,79.30
2018-07-27T20:51:22.903Z,79.30
2018-07-27T20:53:51.190Z,79.30
2018-07-27T20:58:50.581Z,79.10
2018-07-27T21:01:19.810Z,79.20
2018-07-27T21:03:48.504Z,79.30
2018-07-27T21:06:17.004Z,79.20
2018-07-27T21:08:45.811Z,79.10
2018-07-27T21:11:14.977Z,79.20
2018-07-27T21:13:43.079Z,79.00
2018-07-27T21:18:40.613Z,79.00
2018-07-27T21:21:09.755Z,79.10
2018-07-27T21:23:38.544Z,79.00
2018-07-27T21:28:34.935Z,78.80
2018-07-27T21:31:03.033Z,79.00
2018-07-27T21:33:35.350Z,79.00
2018-07-27T21:38:31.855Z,78.90
2018-07-27T21:40:59.909Z,78.90
2018-07-27T21:43:27.901Z,78.90
2018-07-27T21:45:56.785Z,79.00
2018-07-27T21:48:24.630Z,78.70
2018-07-27T21:50:53.508Z,78.80
2018-07-27T21:53:22.538Z,78.90
2018-07-27T21:55:51.609Z,78.80
2018-07-27T21:58:19.513Z,78.70
2018-07-27T22:00:48.379Z,78.90
2018-07-27T22:05:44.842Z,78.70
2018-07-27T22:08:12.819Z,78.90
2018-07-27T22:10:40.825Z,79.00
2018-07-27T22:13:08.818Z,78.70
2018-07-27T22:15:36.692Z,79.40
2018-07-27T22:18:08.444Z,79.00
2018-07-27T22:20:37.429Z,78.60
2018-07-27T22:23:06.932Z,78.80
2018-07-27T22:25:35.665Z,78.60
2018-07-27T22:28:04.386Z,78.90
2018-07-27T22:30:33.588Z,78.70
2018-07-27T22:33:01.469Z,78.80
2018-07-27T22:35:29.507Z,78.80
2018-07-27T22:37:58.236Z,78.60
2018-07-27T22:40:26.221Z,78.60
2018-07-27T22:42:55.277Z,78.70
2018-07-27T22:45:24.149Z,78.60
2018-07-27T22:47:52.894Z,78.70
2018-07-27T22:50:20.800Z,78.70
2018-07-27T22:52:50.756Z,78.70
2018-07-27T22:55:19.703Z,78.90
2018-07-27T22:57:49.529Z,78.90
2018-07-27T23:00:18.193Z,78.80
2018-07-27T23:02:47.076Z,78.80
2018-07-27T23:05:14.905Z,78.60
2018-07-27T23:07:43.631Z,78.60
2018-07-27T23:10:11.661Z,78.60
2018-07-27T23:12:40.785Z,79.00
2018-07-27T23:15:09.950Z,78.70
2018-07-27T23:17:38.738Z,78.50
2018-07-27T23:20:09.685Z,78.60
2018-07-27T23:22:38.615Z,78.60
2018-07-27T23:25:08.034Z,78.70
2018-07-27T23:30:05.932Z,78.70
2018-07-27T23:32:34.740Z,78.60
2018-07-27T23:37:32.253Z,78.60
2018-07-27T23:40:01.051Z,78.80
2018-07-27T23:42:29.848Z,78.60
2018-07-27T23:44:58.759Z,78.60
2018-07-27T23:47:27.640Z,78.70
2018-07-27T23:49:56.573Z,78.70
2018-07-27T23:52:24.419Z,78.70
2018-07-27T23:54:52.204Z,78.60
2018-07-27T23:57:21.172Z,78.60
2018-07-27T23:59:49.459Z,78.70
